Time;durP1;ratioP1;P1;durP2;ratioP2;P2;SDS_P1;SDS_P2;PMS_P1;PMS_P2;Temp;Humidity;BMP_temperature;BMP_pressure;BME280_temperature;BME280_humidity;BME280_pressure;Samples;Min_cycle;Max_cycle;Signal;HPM_P1;HPM_P2
2022/07/18 00:00:14;;;;;;;3.88;0.70;;;;;;;22.11;33.76;100927.78;10419594;28;20295;-53
2022/07/18 00:05:15;;;;;;;3.33;0.90;;;;;;;22.07;33.74;100927.31;10418541;28;20076;-53
2022/07/18 00:10:17;;;;;;;2.03;0.70;;;;;;;22.04;33.59;100922.25;10420160;28;20122;-53
2022/07/18 00:15:19;;;;;;;2.45;0.68;;;;;;;22.00;33.32;100926.34;10420472;28;20049;-53
2022/07/18 00:20:20;;;;;;;3.35;0.73;;;;;;;21.93;33.38;100919.97;10425841;28;20047;-53
2022/07/18 00:25:22;;;;;;;2.50;0.73;;;;;;;21.86;33.38;100919.88;10422587;28;20144;-53
2022/07/18 00:30:23;;;;;;;1.92;0.75;;;;;;;21.84;33.43;100921.06;10428856;28;20080;-53
2022/07/18 00:35:25;;;;;;;2.55;0.55;;;;;;;21.77;33.68;100920.97;10410525;28;20072;-53
2022/07/18 00:40:26;;;;;;;1.15;0.63;;;;;;;21.73;33.54;100918.78;10426646;28;20127;-53
2022/07/18 00:45:28;;;;;;;3.35;0.85;;;;;;;21.68;33.56;100922.88;10426194;28;20040;-53
2022/07/18 00:50:29;;;;;;;2.42;0.63;;;;;;;21.66;33.74;100924.06;10419506;28;20133;-53
2022/07/18 00:55:31;;;;;;;1.50;0.88;;;;;;;21.65;34.40;100922.41;10418578;28;20048;-53
2022/07/18 01:05:53;;;;;;;1.42;0.60;;;;;;;21.60;34.17;100919.38;10419601;28;20080;-53
2022/07/18 01:10:55;;;;;;;5.00;0.90;;;;;;;21.59;34.01;100918.56;10426595;28;20804;-54
2022/07/18 01:15:56;;;;;;;1.38;0.70;;;;;;;21.55;34.10;100917.22;10424398;28;20079;-53
2022/07/18 01:20:58;;;;;;;2.53;0.50;;;;;;;21.54;34.04;100927.22;10420229;28;20132;-53
2022/07/18 01:25:59;;;;;;;1.35;0.52;;;;;;;21.51;34.15;100924.88;10419567;28;20054;-53
2022/07/18 01:31:01;;;;;;;2.65;0.57;;;;;;;21.49;34.22;100926.88;10417086;28;20124;-53
2022/07/18 01:36:04;;;;;;;1.80;0.43;;;;;;;21.42;34.50;100923.16;10420946;28;20134;-53
2022/07/18 01:41:06;;;;;;;9.20;1.65;;;;;;;21.35;34.38;100920.34;10418326;28;20760;-53
2022/07/18 01:46:11;;;;;;;2.67;0.88;;;;;;;21.28;34.12;100924.78;10421316;28;20162;-53
2022/07/18 01:51:12;;;;;;;0.98;0.80;;;;;;;21.28;34.67;100916.66;10420102;28;20053;-53
2022/07/18 01:56:14;;;;;;;2.20;0.70;;;;;;;21.23;34.56;100926.34;10418999;28;20147;-54
2022/07/18 02:01:15;;;;;;;3.65;0.70;;;;;;;21.16;34.86;100918.09;10420756;28;20226;-53
2022/07/18 02:06:17;;;;;;;2.05;0.82;;;;;;;21.11;35.26;100920.50;10419774;28;20379;-54
2022/07/18 02:11:18;;;;;;;2.72;0.85;;;;;;;21.08;35.38;100929.81;10420639;28;20088;-53
2022/07/18 02:16:19;;;;;;;2.75;0.88;;;;;;;21.06;35.67;100929.13;10415833;28;20068;-53
2022/07/18 02:21:21;;;;;;;2.30;0.70;;;;;;;20.99;36.02;100914.63;10422039;28;20057;-53
2022/07/18 02:26:23;;;;;;;1.98;1.00;;;;;;;20.93;35.79;100916.16;10403492;28;20073;-53
2022/07/18 02:31:24;;;;;;;1.23;0.55;;;;;;;20.89;36.33;100920.22;10416075;28;20116;-53
2022/07/18 02:36:26;;;;;;;3.15;0.80;;;;;;;20.79;36.37;100911.47;10415966;28;20155;-53
2022/07/18 02:41:27;;;;;;;1.98;0.55;;;;;;;20.76;36.95;100911.81;10416511;28;20132;-53
2022/07/18 02:46:31;;;;;;;;;;;;;;;20.70;37.36;100905.25;10421186;28;20507;-53
2022/07/18 02:51:33;;;;;;;2.15;1.20;;;;;;;20.62;36.93;100903.38;10420613;28;20461;-53
2022/07/18 02:56:34;;;;;;;1.80;0.75;;;;;;;20.58;37.04;100912.00;10413542;28;20051;-53
2022/07/18 03:01:35;;;;;;;3.15;0.93;;;;;;;20.52;37.26;100908.13;10418708;28;20135;-53
2022/07/18 03:06:37;;;;;;;2.30;0.93;;;;;;;20.45;37.50;100910.69;10407855;28;20055;-53
2022/07/18 03:11:39;;;;;;;1.73;0.93;;;;;;;20.37;37.66;100917.97;10414122;28;20072;-53
2022/07/18 03:16:40;;;;;;;3.13;0.60;;;;;;;20.35;38.17;100920.84;10419086;28;20052;-53
2022/07/18 03:21:42;;;;;;;2.15;0.70;;;;;;;20.36;38.10;100911.75;10417278;28;20051;-53
2022/07/18 03:26:44;;;;;;;3.10;1.00;;;;;;;20.32;37.55;100918.50;10415392;28;20135;-53
2022/07/18 03:31:45;;;;;;;2.00;0.73;;;;;;;20.28;37.56;100922.53;10416602;28;20655;-53
2022/07/18 03:36:47;;;;;;;2.28;0.70;;;;;;;20.28;37.81;100917.13;10411303;28;20131;-53
2022/07/18 03:41:48;;;;;;;1.73;0.63;;;;;;;20.22;37.30;100915.13;10420786;28;20145;-52
2022/07/18 03:46:51;;;;;;;2.10;0.98;;;;;;;20.16;37.47;100922.03;10401693;28;20068;-52
2022/07/18 03:51:55;;;;;;;1.85;0.73;;;;;;;20.17;37.63;100928.31;10419498;28;20052;-52
2022/07/18 03:56:56;;;;;;;3.03;0.50;;;;;;;20.21;37.84;100929.69;10419282;28;20193;-52
2022/07/18 04:01:58;;;;;;;2.90;0.90;;;;;;;20.18;38.19;100919.22;10422092;28;20128;-52
2022/07/18 04:06:59;;;;;;;2.03;0.82;;;;;;;20.20;38.93;100923.41;10421506;28;20132;-55
2022/07/18 04:12:01;;;;;;;2.10;1.17;;;;;;;20.16;38.82;100922.03;10419321;28;20195;-53
2022/07/18 04:17:02;;;;;;;3.10;1.08;;;;;;;20.01;39.35;100930.03;10420937;28;20189;-53
2022/07/18 04:22:04;;;;;;;2.40;1.08;;;;;;;19.93;39.97;100925.44;10499579;22;20056;-54
2022/07/18 04:27:05;;;;;;;4.35;1.20;;;;;;;19.82;40.33;100924.94;10505642;27;20552;-54
2022/07/18 04:32:07;;;;;;;3.80;0.90;;;;;;;19.77;40.69;100920.88;10498837;27;20795;-56
2022/07/18 04:37:09;;;;;;;3.95;1.63;;;;;;;19.76;41.25;100921.03;10507166;27;20040;-54
2022/07/18 04:42:10;;;;;;;4.10;1.10;;;;;;;19.70;41.41;100927.09;10508141;27;20102;-54
2022/07/18 04:47:12;;;;;;;4.13;1.42;;;;;;;19.72;41.85;100919.66;10509110;27;20146;-53
2022/07/18 04:52:13;;;;;;;2.72;1.15;;;;;;;19.74;42.08;100920.31;10493514;27;20057;-62
2022/07/18 04:57:15;;;;;;;3.28;1.15;;;;;;;19.66;42.00;100931.97;10484073;27;20059;-61
2022/07/18 05:02:16;;;;;;;2.42;1.13;;;;;;;19.69;41.56;100936.19;10483329;27;20154;-61
2022/07/18 05:07:18;;;;;;;1.83;0.88;;;;;;;19.67;41.61;100928.28;10481938;27;20125;-62
2022/07/18 05:12:23;;;;;;;2.85;0.93;;;;;;;19.73;41.26;100933.00;10480284;27;20047;-62
2022/07/18 05:17:24;;;;;;;3.17;1.25;;;;;;;19.82;41.36;100920.38;10486323;27;20116;-61
2022/07/18 05:22:26;;;;;;;3.40;0.90;;;;;;;19.92;41.89;100926.47;10496190;28;20156;-62
2022/07/18 05:27:27;;;;;;;1.58;0.73;;;;;;;20.04;40.99;100937.78;10491444;27;20094;-62
2022/07/18 05:32:29;;;;;;;2.13;0.80;;;;;;;20.16;40.06;100932.03;10485603;27;20626;-61
2022/07/18 05:37:30;;;;;;;3.15;0.93;;;;;;;20.31;40.03;100933.03;10491083;27;20225;-61
2022/07/18 05:42:32;;;;;;;2.25;1.20;;;;;;;20.41;39.89;100924.75;10482943;27;20131;-63
2022/07/18 05:47:54;;;;;;;1.50;0.98;;;;;;;20.46;39.46;100925.91;10481964;27;20417;-63
2022/07/18 05:52:55;;;;;;;2.25;0.68;;;;;;;20.59;39.98;100932.66;10481561;27;20086;-62
2022/07/18 05:57:57;;;;;;;1.52;0.60;;;;;;;20.66;39.99;100931.81;10485043;27;20083;-63
2022/07/18 06:02:58;;;;;;;5.15;0.57;;;;;;;20.67;39.09;100935.34;10483041;28;20497;-61
2022/07/18 06:08:00;;;;;;;2.50;0.73;;;;;;;20.81;39.52;100931.09;10481081;27;20075;-61
2022/07/18 06:13:01;;;;;;;1.35;0.65;;;;;;;20.89;39.07;100935.63;10479208;27;20193;-62
2022/07/18 06:18:03;;;;;;;2.80;0.60;;;;;;;20.99;38.44;100945.22;10482595;27;20058;-62
2022/07/18 06:23:04;;;;;;;2.20;0.60;;;;;;;21.09;38.46;100939.63;10477953;27;20494;-62
2022/07/18 06:28:06;;;;;;;2.17;0.70;;;;;;;21.25;38.04;100944.09;10479546;27;20144;-66
2022/07/18 06:33:07;;;;;;;1.60;0.60;;;;;;;21.35;37.71;100930.34;10480394;27;20052;-64
2022/07/18 06:38:09;;;;;;;3.15;0.93;;;;;;;21.52;37.62;100940.06;10478320;27;20140;-64
2022/07/18 06:43:10;;;;;;;1.33;0.50;;;;;;;21.66;36.34;100930.34;10476639;27;20513;-64
2022/07/18 06:48:13;;;;;;;4.07;0.95;;;;;;;21.84;36.12;100931.91;10483548;27;20058;-63
2022/07/18 06:53:15;;;;;;;1.60;0.50;;;;;;;21.95;35.96;100933.34;10481847;27;20326;-64
2022/07/18 06:58:17;;;;;;;2.45;0.68;;;;;;;22.14;35.29;100930.13;10482431;27;20051;-63
2022/07/18 07:03:18;;;;;;;2.08;0.52;;;;;;;22.38;34.86;100922.81;10484926;27;20039;-64
2022/07/18 07:08:20;;;;;;;3.15;0.95;;;;;;;22.58;34.79;100925.84;10478262;28;20241;-65
2022/07/18 07:13:21;;;;;;;1.60;0.60;;;;;;;22.77;34.23;100924.44;10480237;27;20063;-64
2022/07/18 07:18:23;;;;;;;1.70;0.70;;;;;;;22.89;33.85;100920.19;10479176;27;20631;-65
2022/07/18 07:23:24;;;;;;;1.95;0.75;;;;;;;23.02;33.09;100926.88;10477179;28;20067;-65
2022/07/18 07:28:26;;;;;;;4.50;0.93;;;;;;;23.11;32.90;100926.56;10478371;27;20047;-64
2022/07/18 07:33:27;;;;;;;1.95;0.80;;;;;;;23.21;32.95;100915.44;10474035;27;20060;-64
2022/07/18 07:38:29;;;;;;;3.35;0.60;;;;;;;23.37;32.14;100917.06;10478921;27;20472;-64
2022/07/18 07:43:30;;;;;;;3.20;1.35;;;;;;;23.63;31.47;100913.81;10476992;27;20047;-64
2022/07/18 07:48:32;;;;;;;2.90;0.90;;;;;;;23.67;30.90;100914.25;10475468;27;20570;-64
2022/07/18 07:53:33;;;;;;;1.25;0.75;;;;;;;23.85;31.18;100911.09;10474836;27;20489;-64
2022/07/18 07:58:35;;;;;;;3.10;1.00;;;;;;;24.07;31.35;100905.66;10469151;27;20140;-65
2022/07/18 08:03:36;;;;;;;1.60;0.90;;;;;;;24.11;31.43;100885.16;10472495;27;20097;-64
2022/07/18 08:08:37;;;;;;;2.63;0.95;;;;;;;24.44;30.25;100884.56;10473098;27;20125;-64
2022/07/18 08:13:39;;;;;;;2.90;0.55;;;;;;;24.51;30.57;100885.44;10469604;27;20082;-65
2022/07/18 08:18:40;;;;;;;3.13;0.90;;;;;;;24.75;29.30;100892.31;10470556;27;20047;-65
2022/07/18 08:23:43;;;;;;;2.28;0.90;;;;;;;24.87;29.22;100896.13;10468773;27;20052;-64
2022/07/18 08:28:44;;;;;;;3.40;0.98;;;;;;;25.08;29.00;100882.59;10468543;27;20051;-65
2022/07/18 08:33:46;;;;;;;4.28;0.70;;;;;;;25.27;28.96;100872.81;10471809;27;20769;-63
2022/07/18 08:38:47;;;;;;;5.75;0.68;;;;;;;25.51;28.20;100874.16;10477073;27;20980;-64
2022/07/18 08:43:49;;;;;;;1.70;0.85;;;;;;;25.84;28.39;100870.63;10485913;27;20048;-63
2022/07/18 08:48:52;;;;;;;5.68;1.60;;;;;;;26.10;27.85;100867.91;10480320;27;20056;-65
2022/07/18 08:53:55;;;;;;;5.07;0.82;;;;;;;26.06;27.55;100866.66;10484992;27;20115;-63
2022/07/18 08:58:59;;;;;;;3.85;0.60;;;;;;;26.36;27.56;100860.75;10485003;28;20490;-63
2022/07/18 09:04:16;;;;;;;2.92;0.88;;;;;;;26.42;26.56;100854.44;10478878;27;20756;-64
2022/07/18 09:09:18;;;;;;;4.75;0.82;;;;;;;26.72;27.15;100853.94;10484845;27;20099;-64
2022/07/18 09:14:41;;;;;;;3.53;0.70;;;;;;;27.28;27.20;100846.09;10484923;27;20143;-67
2022/07/18 09:20:00;;;;;;;2.28;0.80;;;;;;;27.36;26.04;100854.06;10483369;27;20050;-65
2022/07/18 09:25:13;;;;;;;4.88;1.13;;;;;;;27.66;26.18;100859.72;10497514;27;20071;-64
2022/07/18 09:30:20;;;;;;;4.72;1.38;;;;;;;28.06;25.82;100852.25;10485859;27;20922;-64
2022/07/18 09:35:27;;;;;;;3.90;1.00;;;;;;;28.41;23.79;100852.53;10481560;27;20055;-66
2022/07/18 09:40:36;;;;;;;4.28;0.90;;;;;;;28.65;24.63;100837.13;10475437;27;20071;-64
2022/07/18 09:45:41;;;;;;;6.20;1.13;;;;;;;28.83;23.51;100839.00;10475526;27;20071;-65
2022/07/18 09:51:04;;;;;;;6.30;1.05;;;;;;;29.14;22.25;100844.50;10480046;27;20043;-64
2022/07/18 09:56:10;;;;;;;2.42;0.50;;;;;;;29.45;23.32;100832.47;10474561;27;20860;-66
2022/07/18 10:01:11;;;;;;;4.00;0.75;;;;;;;29.80;22.26;100834.44;10474413;27;20155;-66
2022/07/18 10:06:13;;;;;;;1.77;0.60;;;;;;;30.07;22.63;100829.34;10478939;27;20063;-65
2022/07/18 10:11:14;;;;;;;4.33;0.93;;;;;;;30.54;20.56;100828.47;10476105;27;20234;-65
2022/07/18 10:16:16;;;;;;;2.50;0.93;;;;;;;30.92;21.13;100824.25;10478219;27;20692;-66
2022/07/18 10:21:20;;;;;;;1.77;0.52;;;;;;;31.16;20.89;100821.44;10474123;27;21466;-68
2022/07/18 10:26:23;;;;;;;2.85;1.27;;;;;;;31.48;20.25;100824.50;10476628;27;20451;-68
2022/07/18 10:31:26;;;;;;;5.03;0.50;;;;;;;31.55;19.86;100816.09;10477010;27;20612;-64
2022/07/18 10:36:28;;;;;;;1.45;0.70;;;;;;;31.82;19.79;100821.75;10476955;27;20047;-65
2022/07/18 10:41:29;;;;;;;2.80;0.57;;;;;;;32.35;19.31;100819.50;10481738;27;20556;-65
2022/07/18 10:47:02;;;;;;;3.38;0.80;;;;;;;32.84;18.48;100809.66;10486269;27;20044;-66
2022/07/18 10:52:03;;;;;;;3.13;0.70;;;;;;;32.82;18.11;100798.88;10477835;27;20666;-65
2022/07/18 10:57:07;;;;;;;2.22;0.80;;;;;;;33.06;18.33;100796.63;10477278;28;20056;-65
2022/07/18 11:02:08;;;;;;;4.40;0.90;;;;;;;33.13;18.01;100800.03;10471723;27;20051;-66
2022/07/18 11:07:15;;;;;;;2.28;0.57;;;;;;;33.47;17.06;100793.44;10475925;27;20055;-64
2022/07/18 11:12:21;;;;;;;4.07;0.82;;;;;;;33.73;17.54;100783.44;10481933;27;20152;-65
2022/07/18 11:17:55;;;;;;;3.58;0.77;;;;;;;34.03;17.21;100776.44;10496090;27;20040;-67
2022/07/18 11:23:18;;;;;;;5.07;0.85;;;;;;;33.88;17.26;100779.13;10472626;27;20059;-67
2022/07/18 11:28:20;;;;;;;2.83;0.47;;;;;;;34.01;17.28;100762.09;10479835;27;20161;-65
2022/07/18 11:33:27;;;;;;;2.03;0.52;;;;;;;34.20;18.02;100758.84;10478090;27;20192;-66
2022/07/18 11:38:29;;;;;;;1.83;0.43;;;;;;;34.17;16.22;100760.22;10478160;28;20120;-66
2022/07/18 11:43:30;;;;;;;3.67;0.80;;;;;;;34.02;17.70;100761.00;10470736;27;20181;-65
2022/07/18 11:48:33;;;;;;;3.03;0.70;;;;;;;33.88;16.25;100746.00;10476775;27;20771;-66
2022/07/18 11:53:35;;;;;;;5.95;0.98;;;;;;;33.70;16.91;100745.28;10478020;28;20263;-67
2022/07/18 11:58:38;;;;;;;5.85;1.00;;;;;;;33.72;16.10;100751.41;10478132;27;20051;-66
2022/07/18 12:03:42;;;;;;;2.30;0.68;;;;;;;33.76;17.53;100744.25;10478450;27;20064;-66
2022/07/18 12:08:46;;;;;;;3.38;0.73;;;;;;;33.96;16.29;100731.66;10476441;28;20052;-67
2022/07/18 12:13:57;;;;;;;1.00;0.40;;;;;;;34.07;16.25;100725.09;10484368;27;20089;-68
2022/07/18 12:19:08;;;;;;;1.75;0.50;;;;;;;34.17;16.48;100719.63;10488704;27;20088;-65
2022/07/18 12:24:22;;;;;;;1.13;0.50;;;;;;;34.16;16.08;100715.19;10487565;27;20804;-65
2022/07/18 12:29:31;;;;;;;1.10;0.63;;;;;;;34.29;15.98;100713.06;10487287;27;20044;-65
2022/07/18 12:34:32;;;;;;;2.40;0.45;;;;;;;34.32;16.61;100706.97;10491512;27;20126;-67
2022/07/18 12:39:34;;;;;;;2.55;0.50;;;;;;;34.34;16.30;100699.28;10489355;27;20062;-67
2022/07/18 12:44:35;;;;;;;2.25;0.50;;;;;;;34.37;16.74;100695.97;10491325;27;20746;-65
2022/07/18 12:49:37;;;;;;;2.58;0.68;;;;;;;34.49;16.95;100690.19;10489374;27;20132;-66
2022/07/18 12:54:38;;;;;;;1.63;0.60;;;;;;;34.32;16.69;100691.25;10489454;27;20139;-66
2022/07/18 12:59:40;;;;;;;4.97;0.95;;;;;;;34.12;16.35;100678.16;10487806;27;20047;-66
2022/07/18 13:04:42;;;;;;;4.13;0.70;;;;;;;34.10;16.80;100666.56;10483144;27;20056;-66
2022/07/18 13:09:43;;;;;;;1.40;0.70;;;;;;;34.05;15.96;100674.84;10483637;27;20158;-67
2022/07/18 13:14:45;;;;;;;0.93;0.55;;;;;;;33.99;16.84;100668.47;10483589;27;20066;-66
2022/07/18 13:19:46;;;;;;;2.67;0.60;;;;;;;34.07;16.42;100656.06;10486890;27;20189;-66
2022/07/18 13:24:48;;;;;;;2.42;0.55;;;;;;;33.88;16.24;100654.88;10497459;27;20052;-66
2022/07/18 13:29:49;;;;;;;5.65;0.63;;;;;;;33.68;16.65;100653.66;10488181;27;20127;-65
2022/07/18 13:34:50;;;;;;;1.92;0.90;;;;;;;33.69;16.31;100655.34;10483514;27;20666;-65
2022/07/18 13:39:52;;;;;;;1.23;0.40;;;;;;;33.70;16.95;100642.34;10479761;27;20059;-65
2022/07/18 13:44:53;;;;;;;0.75;0.40;;;;;;;33.74;16.64;100635.25;10484675;27;20078;-65
2022/07/18 13:49:54;;;;;;;;;;;;;;;33.71;17.02;100633.81;10486134;27;20052;-66
2022/07/18 13:54:56;;;;;;;3.13;0.80;;;;;;;33.79;16.75;100630.53;10483159;27;20014;-65
2022/07/18 13:59:57;;;;;;;0.77;0.38;;;;;;;33.78;16.94;100626.16;10479655;27;20248;-65
2022/07/18 14:04:59;;;;;;;4.95;1.58;;;;;;;33.69;16.90;100626.88;10478452;27;20044;-65
2022/07/18 14:10:14;;;;;;;2.97;0.60;;;;;;;33.64;16.87;100619.41;10480899;27;20075;-64
2022/07/18 14:15:16;;;;;;;2.55;0.68;;;;;;;33.48;17.24;100616.59;10483504;27;20036;-68
2022/07/18 14:20:17;;;;;;;2.95;1.13;;;;;;;33.46;16.98;100616.03;10478604;27;20181;-66
2022/07/18 14:25:19;;;;;;;1.90;0.75;;;;;;;33.35;17.73;100608.78;10480793;27;20093;-66
2022/07/18 14:30:20;;;;;;;;;;;;;;;33.24;16.83;100599.63;10480295;27;20511;-69
2022/07/18 14:35:21;;;;;;;1.85;0.80;;;;;;;33.14;17.47;100599.53;10480055;27;20631;-70
2022/07/18 14:40:23;;;;;;;1.88;0.82;;;;;;;33.04;17.67;100583.75;10477680;27;20124;-72
2022/07/18 14:45:24;;;;;;;;;;;;;;;32.97;16.97;100585.94;10478243;27;20060;-72
2022/07/18 14:50:33;;;;;;;2.30;0.98;;;;;;;32.93;17.99;100582.03;10476561;27;19924;-70
2022/07/18 14:55:34;;;;;;;;;;;;;;;32.87;17.39;100583.09;10480993;27;20120;-71
2022/07/18 15:00:36;;;;;;;4.72;0.90;;;;;;;32.80;17.99;100571.47;10477795;27;20010;-70
2022/07/18 15:05:37;;;;;;;;;;;;;;;32.74;17.91;100574.19;10477021;27;20048;-72
2022/07/18 15:10:38;;;;;;;2.87;0.80;;;;;;;32.78;18.04;100569.78;10480656;28;19924;-69
2022/07/18 15:15:40;;;;;;;4.82;0.70;;;;;;;32.80;18.25;100565.94;10475660;27;20488;-70
2022/07/18 15:20:42;;;;;;;;;;;;;;;32.76;18.02;100571.16;10481390;27;20056;-69
2022/07/18 15:25:46;;;;;;;3.75;0.77;;;;;;;32.77;18.20;100570.06;10479106;28;19930;-69
2022/07/18 15:30:53;;;;;;;2.10;1.15;;;;;;;32.72;17.94;100565.34;10475201;28;20089;-67
2022/07/18 15:35:55;;;;;;;1.83;1.23;;;;;;;32.57;18.18;100554.16;10475844;28;20073;-67
2022/07/18 15:40:56;;;;;;;2.30;0.68;;;;;;;32.43;18.49;100551.84;10475675;28;20040;-69
2022/07/18 15:45:58;;;;;;;1.35;0.60;;;;;;;32.37;18.94;100552.91;10473669;27;20806;-70
2022/07/18 15:50:59;;;;;;;3.67;0.73;;;;;;;32.33;18.55;100545.44;10475055;27;20048;-69
2022/07/18 15:56:01;;;;;;;2.40;1.23;;;;;;;32.34;18.82;100544.31;10477892;28;20177;-69
2022/07/18 16:01:03;;;;;;;7.60;1.55;;;;;;;32.33;18.65;100539.94;10481659;27;20633;-66
2022/07/18 16:06:04;;;;;;;1.20;0.73;;;;;;;32.59;18.09;100532.69;10477188;28;20043;-64
2022/07/18 16:11:06;;;;;;;4.88;0.82;;;;;;;32.46;18.57;100524.88;10507848;28;20156;-64
2022/07/18 16:16:07;;;;;;;2.58;1.13;;;;;;;32.48;18.21;100519.94;10508953;28;21132;-64
2022/07/18 16:21:26;;;;;;;4.32;0.95;;;;;;;32.47;18.58;100523.78;10400894;22;21137;-66
2022/07/18 16:26:57;;;;;;;1.45;0.70;;;;;;;32.39;18.64;100516.84;10246487;28;20040;-67
2022/07/18 16:31:58;;;;;;;;;;;;;;;32.36;18.35;100509.09;10461975;28;20109;-67
2022/07/18 16:37:00;;;;;;;4.47;1.10;;;;;;;32.39;18.34;100506.63;10446178;28;20009;-67
2022/07/18 16:42:01;;;;;;;2.78;1.20;;;;;;;32.48;18.09;100498.72;10456433;28;20209;-64
2022/07/18 16:47:04;;;;;;;2.42;0.77;;;;;;;32.40;18.10;100494.53;10460443;28;20339;-65
2022/07/18 16:52:07;;;;;;;2.60;1.00;;;;;;;32.29;18.36;100483.69;10457512;28;20048;-65
2022/07/18 16:57:08;;;;;;;1.88;1.00;;;;;;;32.14;18.65;100481.66;10456732;28;20097;-65
2022/07/18 17:02:10;;;;;;;;;;;;;;;32.02;18.63;100488.13;10465929;28;20731;-65
2022/07/18 17:07:12;;;;;;;;;;;;;;;32.00;18.56;100487.56;10464185;28;20332;-64
2022/07/18 17:12:14;;;;;;;2.60;1.20;;;;;;;32.06;18.68;100482.94;10458468;28;20022;-65
2022/07/18 17:17:16;;;;;;;2.35;0.82;;;;;;;31.95;18.99;100479.25;10464781;28;20055;-66
2022/07/18 17:22:19;;;;;;;3.03;0.80;;;;;;;31.85;19.08;100479.16;10424957;28;20098;-66
2022/07/18 17:27:21;;;;;;;2.95;1.13;;;;;;;31.78;18.99;100484.03;10463519;28;20506;-66
2022/07/18 17:32:24;;;;;;;2.10;1.02;;;;;;;31.72;18.97;100470.22;10453873;28;20106;-67
2022/07/18 17:37:26;;;;;;;4.32;0.77;;;;;;;31.61;19.24;100462.94;10441302;28;20118;-66
2022/07/18 17:42:27;;;;;;;;;;;;;;;31.57;19.33;100467.28;10445591;28;20102;-65
2022/07/18 17:47:31;;;;;;;2.13;0.70;;;;;;;31.54;19.38;100457.63;10446024;28;19982;-65
2022/07/18 17:52:34;;;;;;;2.55;1.13;;;;;;;31.48;19.26;100460.56;10445728;28;20044;-64
2022/07/18 17:57:35;;;;;;;3.10;1.20;;;;;;;31.39;19.36;100454.69;10442695;28;20148;-65
2022/07/18 18:02:36;;;;;;;3.13;1.10;;;;;;;31.31;19.55;100460.66;10443474;28;20054;-65
2022/07/18 18:07:40;;;;;;;3.17;0.90;;;;;;;31.24;19.20;100463.59;10439725;28;20059;-65
2022/07/18 18:12:42;;;;;;;3.38;0.70;;;;;;;31.12;19.96;100465.63;10446470;28;20105;-66
2022/07/18 18:17:43;;;;;;;5.78;1.25;;;;;;;31.04;19.93;100464.16;10442831;28;20517;-65
2022/07/18 18:22:45;;;;;;;2.35;1.00;;;;;;;30.97;20.06;100469.84;10441396;28;20835;-65
2022/07/18 18:27:52;;;;;;;4.25;1.48;;;;;;;30.83;20.57;100465.78;10439676;28;20172;-65
2022/07/18 18:32:54;;;;;;;3.10;1.40;;;;;;;30.68;20.86;100467.22;10437163;28;20144;-66
2022/07/18 18:37:55;;;;;;;2.17;1.03;;;;;;;30.53;21.50;100458.75;10439715;28;20436;-65
2022/07/18 18:42:56;;;;;;;3.97;2.03;;;;;;;30.41;21.63;100463.50;10447506;28;20289;-65
2022/07/18 18:47:58;;;;;;;3.65;2.67;;;;;;;30.27;21.88;100466.56;10441533;28;20404;-66
2022/07/18 18:53:00;;;;;;;4.60;2.35;;;;;;;30.16;22.40;100464.72;10440615;28;20051;-66
2022/07/18 18:58:02;;;;;;;2.75;2.00;;;;;;;30.04;22.90;100466.69;10436043;28;20204;-65
2022/07/18 19:03:04;;;;;;;3.25;2.50;;;;;;;29.91;23.49;100454.16;10445526;28;20073;-66
2022/07/18 19:08:06;;;;;;;3.38;2.33;;;;;;;29.78;23.73;100452.50;10441561;28;20748;-65
2022/07/18 19:13:07;;;;;;;5.20;3.38;;;;;;;29.66;24.15;100449.81;10438382;28;20190;-65
2022/07/18 19:18:09;;;;;;;4.60;3.23;;;;;;;29.53;24.48;100453.69;10432984;28;21138;-64
2022/07/18 19:23:10;;;;;;;4.40;3.93;;;;;;;29.42;24.91;100454.56;10437209;28;20214;-67
2022/07/18 19:28:12;;;;;;;4.87;3.03;;;;;;;29.29;25.48;100455.69;10437947;28;20563;-67
2022/07/18 19:33:13;;;;;;;4.90;3.47;;;;;;;29.18;26.03;100460.06;10434795;28;20417;-66
2022/07/18 19:38:15;;;;;;;5.30;3.15;;;;;;;29.05;25.92;100471.31;10423311;28;20189;-64
2022/07/18 19:43:17;;;;;;;4.17;3.40;;;;;;;28.91;25.65;100466.09;10436138;28;20745;-65
2022/07/18 19:48:18;;;;;;;6.28;3.63;;;;;;;28.80;26.16;100468.84;10436162;28;20052;-65
2022/07/18 19:53:19;;;;;;;5.33;3.20;;;;;;;28.69;26.13;100475.97;10437034;28;20056;-66
2022/07/18 19:58:21;;;;;;;5.30;3.77;;;;;;;28.57;26.22;100471.31;10436437;28;20129;-66
2022/07/18 20:03:22;;;;;;;5.90;3.73;;;;;;;28.48;26.53;100472.75;10420403;28;20135;-65
2022/07/18 20:08:24;;;;;;;4.25;2.78;;;;;;;28.35;27.06;100476.53;10434734;28;20182;-65
2022/07/18 20:13:25;;;;;;;3.53;2.72;;;;;;;28.30;27.11;100473.69;10420484;28;20087;-65
2022/07/18 20:18:27;;;;;;;5.90;2.63;;;;;;;28.20;27.04;100481.63;10440546;28;20059;-65
2022/07/18 20:23:28;;;;;;;6.50;2.67;;;;;;;28.11;27.13;100478.41;10434259;28;20673;-65
2022/07/18 20:28:30;;;;;;;5.75;3.00;;;;;;;28.03;27.57;100474.09;10434975;28;20063;-64
2022/07/18 20:33:32;;;;;;;6.20;3.30;;;;;;;27.95;27.89;100476.31;10441389;28;20497;-64
2022/07/18 20:38:33;;;;;;;4.93;2.83;;;;;;;27.86;27.45;100470.31;10442037;28;20208;-64
2022/07/18 20:43:36;;;;;;;4.38;2.50;;;;;;;27.77;27.51;100472.56;10445245;28;20128;-64
2022/07/18 20:48:45;;;;;;;1.30;0.38;;;;;;;27.70;33.23;100480.03;10353789;28;20048;-55
2022/07/18 20:53:47;;;;;;;2.30;1.30;;;;;;;27.55;31.64;100471.38;10468724;28;20475;-54
2022/07/18 20:58:48;;;;;;;2.08;1.60;;;;;;;27.43;31.30;100483.13;10474819;28;20127;-53
2022/07/18 21:03:50;;;;;;;5.07;2.40;;;;;;;27.27;29.46;100473.59;10471276;28;20159;-56
2022/07/18 21:08:51;;;;;;;4.13;2.25;;;;;;;27.15;29.30;100476.25;10472802;28;20551;-54
2022/07/18 21:13:53;;;;;;;4.32;2.70;;;;;;;27.04;30.40;100471.56;10468687;28;20131;-55
2022/07/18 21:18:54;;;;;;;4.60;2.72;;;;;;;26.93;30.32;100475.03;10454693;28;20098;-55
2022/07/18 21:23:56;;;;;;;4.38;2.70;;;;;;;26.86;30.44;100479.72;10465191;28;20520;-54
2022/07/18 21:28:57;;;;;;;3.13;2.75;;;;;;;26.78;31.32;100481.72;10462864;28;20141;-55
2022/07/18 21:34:02;;;;;;;3.33;2.83;;;;;;;26.71;29.91;100491.00;10468133;28;20101;-56
2022/07/18 21:39:03;;;;;;;5.25;3.28;;;;;;;26.63;31.24;100481.19;10462823;28;20079;-54
2022/07/18 21:44:05;;;;;;;3.63;3.20;;;;;;;26.51;31.91;100474.78;10464492;28;20128;-55
2022/07/18 21:49:07;;;;;;;5.70;3.93;;;;;;;26.41;30.82;100472.59;10454866;28;20064;-55
2022/07/18 21:54:08;;;;;;;5.10;3.60;;;;;;;26.36;31.88;100472.41;10460334;28;20048;-54
2022/07/18 21:59:10;;;;;;;6.78;3.25;;;;;;;26.31;32.25;100469.50;10456544;28;20477;-53
2022/07/18 22:04:11;;;;;;;5.30;4.13;;;;;;;26.20;31.06;100468.34;10462302;28;20083;-54
2022/07/18 22:09:13;;;;;;;5.78;4.20;;;;;;;26.15;30.83;100470.88;10460612;28;20472;-54
2022/07/18 22:14:15;;;;;;;4.22;3.72;;;;;;;26.11;32.37;100470.50;10461917;28;20135;-54
2022/07/18 22:19:17;;;;;;;5.13;3.43;;;;;;;25.99;31.43;100473.09;10463784;28;20141;-55
2022/07/18 22:24:18;;;;;;;5.35;3.30;;;;;;;25.99;31.49;100473.09;10450453;28;20143;-54
2022/07/18 22:29:19;;;;;;;6.65;3.33;;;;;;;25.89;31.63;100467.25;10458118;28;20048;-55
2022/07/18 22:34:21;;;;;;;6.50;2.85;;;;;;;25.86;31.23;100484.06;10458530;28;20489;-54
2022/07/18 22:39:23;;;;;;;3.42;2.25;;;;;;;25.78;31.83;100482.44;10444984;28;20134;-54
2022/07/18 22:44:25;;;;;;;3.80;2.20;;;;;;;25.71;33.46;100476.16;10449410;28;20048;-55
2022/07/18 22:49:27;;;;;;;5.97;2.47;;;;;;;25.64;33.04;100476.22;10463631;28;20251;-54
2022/07/18 22:54:28;;;;;;;4.30;2.40;;;;;;;25.53;33.91;100474.16;10464375;28;20139;-54
2022/07/18 22:59:30;;;;;;;3.92;2.55;;;;;;;25.43;34.11;100473.78;10459820;28;20051;-56
2022/07/18 23:04:32;;;;;;;6.47;2.50;;;;;;;25.39;34.04;100481.56;10457864;28;20135;-54
2022/07/18 23:09:34;;;;;;;4.85;2.30;;;;;;;25.31;34.09;100471.75;10465909;28;20056;-53
2022/07/18 23:14:36;;;;;;;6.13;2.42;;;;;;;25.26;34.17;100470.69;10465932;28;20040;-54
2022/07/18 23:19:37;;;;;;;6.30;2.00;;;;;;;25.17;34.98;100470.91;10459816;28;20395;-54